createdAt,value
2022-08-22T00:01:12.080Z,98465.81
2022-08-22T00:02:55.205Z,98487.06
2022-08-22T00:03:12.013Z,98497.16
2022-08-22T00:04:51.606Z,98463.44
2022-08-22T00:08:09.837Z,98462.34
2022-08-22T00:11:53.824Z,98453.78
2022-08-22T00:15:08.112Z,98448.16
2022-08-22T00:18:32.506Z,98452.75
2022-08-22T00:21:44.393Z,98448.97
2022-08-22T00:25:04.921Z,98450.84
2022-08-22T00:28:17.528Z,98450.03
2022-08-22T00:31:29.077Z,98449.22
2022-08-22T00:34:46.497Z,98449.50
2022-08-22T00:37:59.959Z,98456.47
2022-08-22T00:41:31.687Z,98449.78
2022-08-22T00:44:58.598Z,98460.53
2022-08-22T00:48:18.095Z,98452.47
2022-08-22T00:51:50.735Z,98453.28
2022-08-22T00:55:14.744Z,98455.94
2022-08-22T00:58:39.356Z,98453.25
2022-08-22T01:01:52.760Z,98453.53
2022-08-22T01:05:13.728Z,98455.41
2022-08-22T01:08:22.051Z,98456.22
2022-08-22T01:11:51.875Z,98452.72
2022-08-22T01:15:07.870Z,98453.25
2022-08-22T01:18:19.277Z,98455.63
2022-08-22T01:21:46.934Z,98457.00
2022-08-22T01:25:20.913Z,98460.75
2022-08-22T01:28:46.497Z,98457.00
2022-08-22T01:32:17.503Z,98460.22
2022-08-22T01:35:39.742Z,98456.19
2022-08-22T01:38:41.851Z,98455.13
2022-08-22T01:41:56.243Z,98456.19
2022-08-22T01:45:17.223Z,98451.63
2022-08-22T01:48:37.853Z,98451.34
2022-08-22T01:51:40.017Z,98455.34
2022-08-22T01:54:45.163Z,98455.06
2022-08-22T01:57:57.992Z,98449.44
2022-08-22T02:01:08.445Z,98449.19
2022-08-22T02:04:31.257Z,98450.81
2022-08-22T02:07:48.722Z,98451.06
2022-08-22T02:11:01.878Z,98444.09
2022-08-22T02:14:26.014Z,98448.66
2022-08-22T02:17:31.775Z,98447.63
2022-08-22T02:21:09.473Z,98448.66
2022-08-22T02:24:33.067Z,98442.97
2022-08-22T02:27:59.115Z,98442.22
2022-08-22T02:31:16.947Z,98440.88
2022-08-22T02:34:28.326Z,98440.34
2022-08-22T02:38:13.326Z,98431.16
2022-08-22T02:41:22.470Z,98439.22
2022-08-22T02:44:30.736Z,98440.59
2022-08-22T02:47:41.234Z,98439.00
2022-08-22T02:51:01.779Z,98437.66
2022-08-22T02:54:31.260Z,98450.03
2022-08-22T02:57:39.656Z,98445.47
2022-08-22T03:01:17.232Z,98445.75
2022-08-22T03:04:31.545Z,98444.13
2022-08-22T03:07:40.010Z,98446.28
2022-08-22T03:10:49.217Z,98453.50
2022-08-22T03:13:56.974Z,98440.63
2022-08-22T03:17:23.347Z,98444.94
2022-08-22T03:20:54.012Z,98449.25
2022-08-22T03:24:04.876Z,98446.81
2022-08-22T03:27:33.167Z,98448.41
2022-08-22T03:30:45.831Z,98447.88
2022-08-22T03:34:18.918Z,98453.53
2022-08-22T03:37:35.852Z,98451.13
2022-08-22T03:41:17.784Z,98457.84
2022-08-22T03:44:45.254Z,98461.06
2022-08-22T03:47:59.605Z,98447.34
2022-08-22T03:51:19.484Z,98454.34
2022-08-22T03:54:30.491Z,98456.50
2022-08-22T03:57:41.923Z,98460.78
2022-08-22T04:01:08.259Z,98459.72
2022-08-22T04:04:33.717Z,98464.00
2022-08-22T04:07:54.571Z,98473.69
2022-08-22T04:10:57.089Z,98469.66
2022-08-22T04:14:24.514Z,98465.62
2022-08-22T04:17:54.888Z,98468.31
2022-08-22T04:21:29.287Z,98469.41
2022-08-22T04:24:38.840Z,98464.56
2022-08-22T04:27:59.767Z,98461.81
2022-08-22T04:31:09.516Z,98471.00
2022-08-22T04:34:30.707Z,98475.81
2022-08-22T04:37:39.168Z,98469.06
2022-08-22T04:40:46.922Z,98475.78
2022-08-22T04:43:56.456Z,98473.59
2022-08-22T04:47:18.330Z,98478.97
2022-08-22T04:50:26.706Z,98474.94
2022-08-22T04:53:41.374Z,98475.41
2022-08-22T04:57:02.864Z,98479.59
2022-08-22T05:00:08.419Z,98481.78
2022-08-22T05:03:14.256Z,98487.38
2022-08-22T05:06:19.796Z,98480.06
2022-08-22T05:09:29.263Z,98486.47
2022-08-22T05:12:34.591Z,98492.69
2022-08-22T05:15:43.678Z,98496.00
2022-08-22T05:18:53.994Z,98503.88
2022-08-22T05:21:57.163Z,98504.75
2022-08-22T05:25:11.011Z,98507.16
2022-08-22T05:28:35.002Z,98502.66
2022-08-22T05:31:48.145Z,98516.63
2022-08-22T05:34:52.020Z,98515.03
2022-08-22T05:37:55.102Z,98515.56
2022-08-22T05:41:02.782Z,98516.66
2022-08-22T05:44:13.719Z,98517.72
2022-08-22T05:47:25.057Z,98518.19
2022-08-22T05:50:53.445Z,98519.78
2022-08-22T05:54:08.944Z,98532.09
2022-08-22T05:57:29.929Z,98532.63
2022-08-22T06:00:39.925Z,98528.53
2022-08-22T06:04:06.234Z,98540.69
2022-08-22T06:07:23.941Z,98537.66
2022-08-22T06:10:29.740Z,98547.09
2022-08-22T06:13:43.146Z,98543.25
2022-08-22T06:16:57.923Z,98538.63
2022-08-22T06:20:00.340Z,98546.38
2022-08-22T06:23:03.398Z,98535.59
2022-08-22T06:26:06.634Z,98555.81
2022-08-22T06:29:40.194Z,98549.06
2022-08-22T06:32:59.739Z,98549.75
2022-08-22T06:36:26.418Z,98546.78
2022-08-22T06:39:41.137Z,98549.47
2022-08-22T06:42:47.314Z,98555.69
2022-08-22T06:45:50.061Z,98546.28
2022-08-22T06:48:54.920Z,98557.78
2022-08-22T06:52:00.871Z,98558.31
2022-08-22T06:55:07.184Z,98554.81
2022-08-22T06:58:17.028Z,98552.34
2022-08-22T07:01:26.144Z,98560.37
2022-08-22T07:04:29.178Z,98566.75
2022-08-22T07:07:31.632Z,98562.97
2022-08-22T07:10:33.989Z,98572.22
2022-08-22T07:13:38.544Z,98568.44
2022-08-22T07:16:55.178Z,98570.22
2022-08-22T07:20:08.038Z,98569.50
2022-08-22T07:23:12.904Z,98571.81
2022-08-22T07:26:21.092Z,98572.50
2022-08-22T07:29:32.563Z,98572.22
2022-08-22T07:32:42.011Z,98575.22
2022-08-22T07:35:53.034Z,98576.97
2022-08-22T07:39:11.213Z,98577.44
2022-08-22T07:42:21.655Z,98571.88
2022-08-22T07:45:59.917Z,98577.59
2022-08-22T07:49:32.747Z,98585.56
2022-08-22T07:52:42.670Z,98584.34
2022-08-22T07:55:49.356Z,98582.13
2022-08-22T07:59:14.665Z,98585.03
2022-08-22T08:02:18.895Z,98578.84
2022-08-22T08:05:24.024Z,98583.41
2022-08-22T08:08:41.780Z,98584.72
2022-08-22T08:11:44.967Z,98591.03
2022-08-22T08:14:51.848Z,98583.09
2022-08-22T08:17:58.495Z,98583.72
2022-08-22T08:21:04.921Z,98583.94
2022-08-22T08:24:09.135Z,98592.91
2022-08-22T08:27:40.311Z,98592.75
2022-08-22T08:30:52.421Z,98594.03
2022-08-22T08:34:05.221Z,98590.78
2022-08-22T08:37:45.118Z,98591.41
2022-08-22T08:40:57.397Z,98594.34
2022-08-22T08:44:18.069Z,98593.94
2022-08-22T08:47:33.279Z,98594.59
2022-08-22T08:50:49.874Z,98588.25
2022-08-22T08:54:09.562Z,98598.00
2022-08-22T08:57:26.857Z,98598.22
2022-08-22T09:00:51.125Z,98596.09
2022-08-22T09:04:22.548Z,98594.78
2022-08-22T09:07:32.721Z,98595.72
2022-08-22T09:11:14.280Z,98586.91
2022-08-22T09:14:34.694Z,98590.00
2022-08-22T09:17:44.748Z,98584.06
2022-08-22T09:20:49.718Z,98589.88
2022-08-22T09:24:04.140Z,98590.13
2022-08-22T09:27:34.009Z,98595.28
2022-08-22T09:31:21.953Z,98588.97
2022-08-22T09:34:43.756Z,98594.16
2022-08-22T09:38:26.847Z,98583.22
2022-08-22T09:41:45.096Z,98592.28
2022-08-22T09:45:19.444Z,98597.84
2022-08-22T09:48:40.121Z,98595.91
2022-08-22T09:52:14.375Z,98601.91
2022-08-22T09:55:38.861Z,98609.72
2022-08-22T09:58:47.956Z,98602.47
2022-08-22T10:02:00.237Z,98600.41
2022-08-22T10:05:07.718Z,98605.81
2022-08-22T10:08:14.797Z,98600.00
2022-08-22T10:11:50.099Z,98607.91
2022-08-22T10:15:07.012Z,98604.81
2022-08-22T10:18:30.953Z,98612.97
2022-08-22T10:21:46.782Z,98607.44
2022-08-22T10:25:04.985Z,98604.09
2022-08-22T10:28:28.538Z,98596.78
2022-08-22T10:31:35.243Z,98600.91
2022-08-22T10:34:50.695Z,98601.72
2022-08-22T10:37:55.216Z,98602.91
2022-08-22T10:41:08.827Z,98600.53
2022-08-22T10:44:31.706Z,98595.91
2022-08-22T10:48:39.895Z,98598.09
2022-08-22T10:51:47.220Z,98598.09
2022-08-22T10:55:11.695Z,98597.50
2022-08-22T10:58:19.002Z,98592.69
2022-08-22T11:01:38.330Z,98586.59
2022-08-22T11:04:54.345Z,98591.81
2022-08-22T11:08:00.564Z,98588.31
2022-08-22T11:11:22.863Z,98594.38
2022-08-22T11:14:46.916Z,98583.59
2022-08-22T11:18:01.208Z,98583.22
2022-08-22T11:21:07.470Z,98585.78
2022-08-22T11:24:36.153Z,98588.34
2022-08-22T11:28:03.961Z,98582.59
2022-08-22T11:31:31.750Z,98575.00
2022-08-22T11:34:51.057Z,98576.19
2022-08-22T11:38:00.972Z,98579.78
2022-08-22T11:41:07.979Z,98578.56
2022-08-22T11:44:18.859Z,98587.47
2022-08-22T11:47:26.340Z,98589.88
2022-08-22T11:50:36.670Z,98579.00
2022-08-22T11:53:44.082Z,98581.22
2022-08-22T11:56:54.247Z,98578.06
2022-08-22T12:00:13.362Z,98577.75
2022-08-22T12:03:37.007Z,98568.75
2022-08-22T12:06:49.754Z,98564.12
2022-08-22T12:10:13.963Z,98566.66
2022-08-22T12:13:49.251Z,98562.66
2022-08-22T12:16:54.343Z,98562.69
2022-08-22T12:20:16.754Z,98558.41
2022-08-22T12:23:43.293Z,98553.87
2022-08-22T12:27:06.481Z,98555.78
2022-08-22T12:30:17.225Z,98558.38
2022-08-22T12:33:55.609Z,98557.12
2022-08-22T12:37:39.804Z,98557.62
2022-08-22T12:41:28.219Z,98552.94
2022-08-22T12:45:02.398Z,98552.09
2022-08-22T12:48:45.373Z,98552.31
2022-08-22T12:52:14.900Z,98548.47
2022-08-22T12:55:33.300Z,98547.22
2022-08-22T12:58:57.531Z,98540.81
2022-08-22T13:02:03.283Z,98530.56
2022-08-22T13:05:13.816Z,98524.00
2022-08-22T13:08:31.332Z,98522.37
2022-08-22T13:11:37.836Z,98524.72
2022-08-22T13:14:41.243Z,98523.53
2022-08-22T13:17:44.626Z,98523.09
2022-08-22T13:20:50.594Z,98532.38
2022-08-22T13:23:54.709Z,98542.00
2022-08-22T13:27:00.962Z,98535.56
2022-08-22T13:30:17.376Z,98532.66
2022-08-22T13:33:26.666Z,98530.25
2022-08-22T13:36:30.630Z,98530.09
2022-08-22T13:39:36.210Z,98534.66
2022-08-22T13:42:50.445Z,98538.72
2022-08-22T13:46:01.985Z,98542.56
2022-08-22T13:49:10.322Z,98541.91
2022-08-22T13:52:29.590Z,98544.94
2022-08-22T13:55:49.510Z,98552.78
2022-08-22T13:58:56.407Z,98548.69
2022-08-22T14:02:09.169Z,98555.06
2022-08-22T14:05:24.949Z,98551.72
2022-08-22T14:08:28.717Z,98549.19
2022-08-22T14:11:38.828Z,98555.81
2022-08-22T14:14:46.797Z,98549.00
2022-08-22T14:17:52.051Z,98540.00
2022-08-22T14:21:40.796Z,98537.13
2022-08-22T14:24:47.730Z,98527.03
2022-08-22T14:28:09.047Z,98524.09
2022-08-22T14:31:13.849Z,98527.09
2022-08-22T14:34:16.595Z,98526.16
2022-08-22T14:37:23.051Z,98536.66
2022-08-22T14:40:29.701Z,98532.47
2022-08-22T14:43:31.986Z,98531.53
2022-08-22T14:46:43.921Z,98539.22
2022-08-22T14:49:57.127Z,98540.44
2022-08-22T14:53:12.150Z,98542.59
2022-08-22T14:56:19.519Z,98542.16
2022-08-22T14:59:40.484Z,98546.19
2022-08-22T15:02:42.868Z,98542.59
2022-08-22T15:05:58.396Z,98538.75
2022-08-22T15:09:02.136Z,98549.78
2022-08-22T15:12:47.658Z,98555.03
2022-08-22T15:15:54.421Z,98551.34
2022-08-22T15:19:00.035Z,98549.88
2022-08-22T15:22:21.034Z,98557.19
2022-08-22T15:25:25.245Z,98564.41
2022-08-22T15:28:28.022Z,98562.81
2022-08-22T15:31:46.835Z,98548.94
2022-08-22T15:34:52.234Z,98554.81
2022-08-22T15:38:04.106Z,98555.72
2022-08-22T15:41:25.267Z,98552.56
2022-08-22T15:44:36.357Z,98562.88
2022-08-22T15:47:41.343Z,98571.00
2022-08-22T15:51:05.021Z,98588.16
2022-08-22T15:54:34.825Z,98597.00
2022-08-22T15:57:39.263Z,98602.69
2022-08-22T16:00:45.565Z,98595.16
2022-08-22T16:04:14.587Z,98594.78
2022-08-22T16:07:45.915Z,98589.31
2022-08-22T16:10:53.822Z,98599.34
2022-08-22T16:14:16.390Z,98590.53
2022-08-22T16:17:30.757Z,98580.19
2022-08-22T16:20:32.916Z,98571.06
2022-08-22T16:23:50.147Z,98581.59
2022-08-22T16:26:54.336Z,98581.91
2022-08-22T16:30:08.127Z,98589.63
2022-08-22T16:33:17.853Z,98590.56
2022-08-22T16:36:21.018Z,98604.25
2022-08-22T16:39:23.200Z,98590.63
2022-08-22T16:42:28.860Z,98590.25
2022-08-22T16:45:35.858Z,98584.84
2022-08-22T16:48:39.602Z,98585.44
2022-08-22T16:52:23.179Z,98589.25
2022-08-22T16:55:31.335Z,98608.84
2022-08-22T16:59:13.870Z,98626.50
2022-08-22T17:02:57.154Z,98640.66
2022-08-22T17:06:36.802Z,98668.22
2022-08-22T17:10:02.499Z,98648.91
2022-08-22T17:13:07.593Z,98635.50
2022-08-22T17:17:02.719Z,98618.50
2022-08-22T17:20:38.454Z,98600.47
2022-08-22T17:23:51.016Z,98611.75
2022-08-22T17:26:59.102Z,98643.47
2022-08-22T17:30:09.467Z,98649.97
2022-08-22T17:33:11.768Z,98647.84
2022-08-22T17:36:27.566Z,98639.47
2022-08-22T17:39:55.676Z,98638.94
2022-08-22T17:42:58.609Z,98631.41
2022-08-22T17:46:13.653Z,98635.50
2022-08-22T17:49:50.282Z,98651.09
2022-08-22T17:53:02.778Z,98646.78
2022-08-22T17:56:41.056Z,98634.16
2022-08-22T17:59:50.545Z,98647.06
2022-08-22T18:03:23.263Z,98647.59
2022-08-22T18:06:31.036Z,98653.25
2022-08-22T18:09:46.727Z,98649.75
2022-08-22T18:13:06.183Z,98659.13
2022-08-22T18:16:23.195Z,98653.75
2022-08-22T18:19:46.826Z,98650.50
2022-08-22T18:22:57.067Z,98654.28
2022-08-22T18:26:31.626Z,98658.81
2022-08-22T18:29:44.294Z,98668.25
2022-08-22T18:33:42.163Z,98666.97
2022-08-22T18:37:06.129Z,98670.44
2022-08-22T18:40:08.461Z,98682.00
2022-08-22T18:43:17.937Z,98679.03
2022-08-22T18:46:32.088Z,98678.53
2022-08-22T18:49:34.283Z,98675.56
2022-08-22T18:52:38.073Z,98678.22
2022-08-22T18:55:56.212Z,98678.22
2022-08-22T18:59:07.492Z,98697.03
2022-08-22T19:02:21.690Z,98691.34
2022-08-22T19:05:51.700Z,98691.66
2022-08-22T19:09:20.213Z,98691.94
2022-08-22T19:12:25.946Z,98687.38
2022-08-22T19:15:55.306Z,98694.12
2022-08-22T19:18:58.698Z,98700.88
2022-08-22T19:22:19.521Z,98704.87
2022-08-22T19:25:28.091Z,98699.50
2022-08-22T19:28:36.997Z,98708.09
2022-08-22T19:31:41.165Z,98709.72
2022-08-22T19:34:46.881Z,98709.19
2022-08-22T19:37:56.722Z,98702.44
2022-08-22T19:40:59.418Z,98706.50
2022-08-22T19:44:04.389Z,98707.28
2022-08-22T19:47:18.894Z,98701.91
2022-08-22T19:50:21.338Z,98695.19
2022-08-22T19:53:44.440Z,98700.31
2022-08-22T19:57:05.055Z,98697.91
2022-08-22T20:00:18.222Z,98694.94
2022-08-22T20:03:26.374Z,98688.50
2022-08-22T20:06:44.104Z,98691.44
2022-08-22T20:10:09.592Z,98685.53
2022-08-22T20:13:24.363Z,98684.16
2022-08-22T20:16:59.351Z,98686.06
2022-08-22T20:20:17.344Z,98688.75
2022-08-22T20:23:27.490Z,98685.25
2022-08-22T20:26:30.106Z,98688.75
2022-08-22T20:29:36.418Z,98684.44
2022-08-22T20:32:58.073Z,98682.53
2022-08-22T20:36:18.526Z,98694.12
2022-08-22T20:39:39.499Z,98692.78
2022-08-22T20:42:45.431Z,98695.47
2022-08-22T20:45:57.627Z,98691.94
2022-08-22T20:49:01.534Z,98686.56
2022-08-22T20:52:23.759Z,98686.31
2022-08-22T20:55:31.614Z,98682.53
2022-08-22T20:58:38.888Z,98687.94
2022-08-22T21:01:41.285Z,98681.97
2022-08-22T21:05:00.225Z,98686.56
2022-08-22T21:08:10.595Z,98688.75
2022-08-22T21:11:43.407Z,98683.63
2022-08-22T21:14:48.921Z,98676.34
2022-08-22T21:17:51.343Z,98668.81
2022-08-22T21:20:54.004Z,98672.88
2022-08-22T21:24:06.371Z,98671.25
2022-08-22T21:27:09.331Z,98680.66
2022-08-22T21:30:12.147Z,98678.25
2022-08-22T21:33:23.712Z,98677.44
2022-08-22T21:36:30.359Z,98688.47
2022-08-22T21:39:40.826Z,98690.63
2022-08-22T21:42:57.818Z,98683.91
2022-08-22T21:46:00.205Z,98683.66
2022-08-22T21:49:05.022Z,98683.09
2022-08-22T21:52:07.257Z,98687.94
2022-08-22T21:55:23.462Z,98686.31
2022-08-22T21:58:36.709Z,98689.03
2022-08-22T22:01:42.754Z,98696.00
2022-08-22T22:04:48.101Z,98689.03
2022-08-22T22:07:51.928Z,98682.28
2022-08-22T22:10:56.502Z,98695.19
2022-08-22T22:13:58.969Z,98701.91
2022-08-22T22:17:01.173Z,98701.38
2022-08-22T22:20:04.503Z,98704.34
2022-08-22T22:23:07.305Z,98694.66
2022-08-22T22:26:10.055Z,98703.81
2022-08-22T22:29:12.293Z,98705.16
2022-08-22T22:32:15.270Z,98711.34
2022-08-22T22:35:18.009Z,98710.50
2022-08-22T22:38:24.110Z,98708.13
2022-08-22T22:41:26.866Z,98712.41
2022-08-22T22:44:29.058Z,98714.84
2022-08-22T22:47:33.049Z,98716.97
2022-08-22T22:50:40.664Z,98713.75
2022-08-22T22:53:43.838Z,98723.69
2022-08-22T22:56:47.983Z,98716.72
2022-08-22T22:59:50.385Z,98722.66
2022-08-22T23:02:53.348Z,98719.16
2022-08-22T23:05:55.557Z,98724.50
2022-08-22T23:08:58.283Z,98723.44
2022-08-22T23:12:01.197Z,98725.31
2022-08-22T23:15:05.433Z,98719.16
2022-08-22T23:18:07.651Z,98732.31
2022-08-22T23:21:23.128Z,98726.94
2022-08-22T23:24:26.623Z,98730.16
2022-08-22T23:27:28.858Z,98729.94
2022-08-22T23:30:31.783Z,98723.19
2022-08-22T23:33:35.277Z,98731.00
2022-08-22T23:36:38.342Z,98737.19
2022-08-22T23:39:41.070Z,98733.69
2022-08-22T23:42:43.373Z,98724.75
2022-08-22T23:45:45.581Z,98721.81
2022-08-22T23:48:48.260Z,98720.22
2022-08-22T23:51:51.025Z,98730.97
2022-08-22T23:54:54.620Z,98722.09
2022-08-22T23:57:58.257Z,98721.31
